createdAt,value
2018-08-20T00:00:42.894Z,12.53
2018-08-20T00:03:11.298Z,14.23
2018-08-20T00:05:42.454Z,8.83
2018-08-20T00:08:10.850Z,20.73
2018-08-20T00:10:39.218Z,9.83
2018-08-20T00:13:07.620Z,12.13
2018-08-20T00:15:35.998Z,14.60
2018-08-20T00:18:04.438Z,14.30
2018-08-20T00:20:32.889Z,10.60
2018-08-20T00:23:01.278Z,17.70
2018-08-20T00:25:29.655Z,14.30
2018-08-20T00:27:58.062Z,8.40
2018-08-20T00:30:26.425Z,8.20
2018-08-20T00:32:55.114Z,14.77
2018-08-20T00:35:23.481Z,9.60
2018-08-20T00:37:52.838Z,14.30
2018-08-20T00:40:22.010Z,8.47
2018-08-20T00:42:50.414Z,13.60
2018-08-20T00:45:18.791Z,10.63
2018-08-20T00:47:47.183Z,10.93
2018-08-20T00:50:15.567Z,23.33
2018-08-20T00:52:43.970Z,17.40
2018-08-20T00:55:13.002Z,18.93
2018-08-20T00:57:41.923Z,17.80
2018-08-20T01:00:11.505Z,14.90
2018-08-20T01:02:39.911Z,15.83
2018-08-20T01:05:08.467Z,25.37
2018-08-20T01:07:36.870Z,24.73
2018-08-20T01:10:07.211Z,16.77
2018-08-20T01:12:35.639Z,20.13
2018-08-20T01:15:04.175Z,22.33
2018-08-20T01:17:32.602Z,19.93
2018-08-20T01:20:00.982Z,20.90
2018-08-20T01:22:29.374Z,26.37
2018-08-20T01:24:57.792Z,28.00
2018-08-20T01:27:27.204Z,39.87
2018-08-20T01:29:55.626Z,23.60
2018-08-20T01:32:24.032Z,20.97
2018-08-20T01:34:52.438Z,21.20
2018-08-20T01:37:21.596Z,24.03
2018-08-20T01:39:50.608Z,17.30
2018-08-20T01:42:19.272Z,21.13
2018-08-20T01:44:48.395Z,27.30
2018-08-20T01:47:16.774Z,25.30
2018-08-20T01:49:45.170Z,20.70
2018-08-20T01:52:13.542Z,19.97
2018-08-20T01:54:41.950Z,22.60
2018-08-20T01:57:10.333Z,42.73
2018-08-20T01:59:39.074Z,26.20
2018-08-20T02:02:07.450Z,22.10
2018-08-20T02:04:35.855Z,19.93
2018-08-20T02:07:04.237Z,23.63
2018-08-20T02:09:32.633Z,23.20
2018-08-20T02:12:01.018Z,24.60
2018-08-20T02:14:29.421Z,22.27
2018-08-20T02:16:57.829Z,21.63
2018-08-20T02:19:26.226Z,22.17
2018-08-20T02:21:54.598Z,20.60
2018-08-20T02:24:22.997Z,17.20
2018-08-20T02:26:51.365Z,19.63
2018-08-20T02:29:19.810Z,17.43
2018-08-20T02:31:48.170Z,19.67
2018-08-20T02:34:16.565Z,26.70
2018-08-20T02:36:44.939Z,24.97
2018-08-20T02:39:14.678Z,22.73
2018-08-20T02:41:43.565Z,16.90
2018-08-20T02:44:13.074Z,13.70
2018-08-20T02:46:45.696Z,19.10
2018-08-20T02:49:14.741Z,14.33
2018-08-20T02:51:43.102Z,17.20
2018-08-20T02:54:12.226Z,18.57
2018-08-20T02:56:41.086Z,22.60
2018-08-20T02:59:09.490Z,18.90
2018-08-20T03:01:38.050Z,16.27
2018-08-20T03:04:07.002Z,17.03
2018-08-20T03:06:35.834Z,16.30
2018-08-20T03:09:06.110Z,16.00
2018-08-20T03:11:34.481Z,16.37
2018-08-20T03:14:03.073Z,16.43
2018-08-20T03:16:31.477Z,23.07
2018-08-20T03:18:59.895Z,22.53
2018-08-20T03:21:28.362Z,16.60
2018-08-20T03:23:56.761Z,21.37
2018-08-20T03:26:25.158Z,21.53
2018-08-20T03:28:53.538Z,17.70
2018-08-20T03:31:21.940Z,19.93
2018-08-20T03:33:50.319Z,19.63
2018-08-20T03:36:18.711Z,28.80
2018-08-20T03:38:47.086Z,21.43
2018-08-20T03:41:15.495Z,16.10
2018-08-20T03:43:43.866Z,18.20
2018-08-20T03:46:12.262Z,19.43
2018-08-20T03:48:40.645Z,17.13
2018-08-20T03:51:09.046Z,22.77
2018-08-20T03:53:37.422Z,26.70
2018-08-20T03:56:05.930Z,40.83
2018-08-20T03:58:34.322Z,15.00
2018-08-20T04:01:02.801Z,19.43
2018-08-20T04:03:31.197Z,24.63
2018-08-20T04:05:59.595Z,18.50
2018-08-20T04:08:27.966Z,24.40
2018-08-20T04:10:56.366Z,20.40
2018-08-20T04:13:24.751Z,13.13
2018-08-20T04:15:53.442Z,26.63
2018-08-20T04:18:21.837Z,29.33
2018-08-20T04:20:50.238Z,22.67
2018-08-20T04:23:18.621Z,17.60
2018-08-20T04:25:47.019Z,19.47
2018-08-20T04:28:15.399Z,18.50
2018-08-20T04:30:43.931Z,16.67
2018-08-20T04:33:12.250Z,19.57
2018-08-20T04:35:40.654Z,20.90
2018-08-20T04:38:09.070Z,20.77
2018-08-20T04:40:37.462Z,24.17
2018-08-20T04:43:05.874Z,15.27
2018-08-20T04:45:34.270Z,18.53
2018-08-20T04:48:02.648Z,24.73
2018-08-20T04:50:31.280Z,19.53
2018-08-20T04:52:59.456Z,17.10
2018-08-20T04:55:27.969Z,16.80
2018-08-20T04:57:56.347Z,15.63
2018-08-20T05:00:24.754Z,18.53
2018-08-20T05:02:53.130Z,17.97
2018-08-20T05:05:21.535Z,23.47
2018-08-20T05:07:49.910Z,15.37
2018-08-20T05:10:18.322Z,13.90
2018-08-20T05:12:46.707Z,16.73
2018-08-20T05:15:15.086Z,27.50
2018-08-20T05:17:43.602Z,19.93
2018-08-20T05:20:11.986Z,15.87
2018-08-20T05:22:40.506Z,15.33
2018-08-20T05:25:08.890Z,14.40
2018-08-20T05:27:37.285Z,15.77
2018-08-20T05:30:06.986Z,19.30
2018-08-20T05:32:35.382Z,28.90
2018-08-20T05:35:03.782Z,12.83
2018-08-20T05:37:32.172Z,14.20
2018-08-20T05:40:00.549Z,13.80
2018-08-20T05:42:28.943Z,21.00
2018-08-20T05:44:57.371Z,18.37
2018-08-20T05:47:25.744Z,20.40
2018-08-20T05:49:54.171Z,14.80
2018-08-20T05:52:22.641Z,19.10
2018-08-20T05:54:50.981Z,24.63
2018-08-20T05:57:19.382Z,13.17
2018-08-20T05:59:47.762Z,16.43
2018-08-20T06:02:16.170Z,17.90
2018-08-20T06:04:44.533Z,16.83
2018-08-20T06:07:12.938Z,18.40
2018-08-20T06:09:41.314Z,14.70
2018-08-20T06:12:09.711Z,12.10
2018-08-20T06:14:38.202Z,22.97
2018-08-20T06:17:06.630Z,19.23
2018-08-20T06:19:35.014Z,18.97
2018-08-20T06:22:03.422Z,15.67
2018-08-20T06:24:31.806Z,12.20
2018-08-20T06:27:00.207Z,18.00
2018-08-20T06:29:28.618Z,10.20
2018-08-20T06:31:57.171Z,14.43
2018-08-20T06:34:25.546Z,16.90
2018-08-20T06:36:53.990Z,14.43
2018-08-20T06:39:22.375Z,12.47
2018-08-20T06:41:50.785Z,11.30
2018-08-20T06:44:19.174Z,11.53
2018-08-20T06:46:47.570Z,12.43
2018-08-20T06:49:15.965Z,12.10
2018-08-20T06:51:44.374Z,13.07
2018-08-20T06:54:12.758Z,21.43
2018-08-20T06:56:41.174Z,12.57
2018-08-20T06:59:09.553Z,17.80
2018-08-20T07:01:37.954Z,13.80
2018-08-20T07:04:06.334Z,16.40
2018-08-20T07:06:34.748Z,11.10
2018-08-20T07:09:03.583Z,12.50
2018-08-20T07:11:31.982Z,15.50
2018-08-20T07:14:00.393Z,16.50
2018-08-20T07:16:28.762Z,11.67
2018-08-20T07:18:57.173Z,10.83
2018-08-20T07:21:25.546Z,28.63
2018-08-20T07:23:54.024Z,15.40
2018-08-20T07:26:22.358Z,10.33
2018-08-20T07:28:50.779Z,12.00
2018-08-20T07:31:19.253Z,9.17
2018-08-20T07:33:47.642Z,9.37
2018-08-20T07:36:16.039Z,9.57
2018-08-20T07:38:44.430Z,8.60
2018-08-20T07:41:12.797Z,19.77
2018-08-20T07:43:41.182Z,7.73
2018-08-20T07:46:09.554Z,14.67
2018-08-20T07:48:37.942Z,14.30
2018-08-20T07:51:06.583Z,9.53
2018-08-20T07:53:34.986Z,12.50
2018-08-20T07:56:03.390Z,14.20
2018-08-20T07:58:31.794Z,6.97
2018-08-20T08:01:00.167Z,12.30
2018-08-20T08:03:31.415Z,15.73
2018-08-20T08:06:01.895Z,7.00
2018-08-20T08:08:30.368Z,13.03
2018-08-20T08:10:58.746Z,17.80
2018-08-20T08:13:27.178Z,7.93
2018-08-20T08:15:55.606Z,8.67
2018-08-20T08:18:24.038Z,10.93
2018-08-20T08:20:52.426Z,7.37
2018-08-20T08:23:20.847Z,7.73
2018-08-20T08:25:49.226Z,6.60
2018-08-20T08:28:17.662Z,13.87
2018-08-20T08:30:46.088Z,8.37
2018-08-20T08:33:14.489Z,5.97
2018-08-20T08:35:42.866Z,14.53
2018-08-20T08:38:11.429Z,12.17
2018-08-20T08:40:39.718Z,11.20
2018-08-20T08:43:08.118Z,7.33
2018-08-20T08:45:36.486Z,13.37
2018-08-20T08:48:04.940Z,7.90
2018-08-20T08:50:33.325Z,6.87
2018-08-20T08:53:01.705Z,7.43
2018-08-20T08:55:30.074Z,13.27
2018-08-20T08:57:58.466Z,9.07
2018-08-20T09:00:26.851Z,9.93
2018-08-20T09:02:55.243Z,6.50
2018-08-20T09:05:23.619Z,15.53
2018-08-20T09:07:52.083Z,8.93
2018-08-20T09:10:20.446Z,8.33
2018-08-20T09:12:48.849Z,8.87
2018-08-20T09:15:17.954Z,7.57
2018-08-20T09:17:46.578Z,6.50
2018-08-20T09:20:16.242Z,7.00
2018-08-20T09:22:44.824Z,13.90
2018-08-20T09:25:14.056Z,16.30
2018-08-20T09:27:43.431Z,10.73
2018-08-20T09:30:18.799Z,13.63
2018-08-20T09:32:47.658Z,9.20
2018-08-20T09:35:16.167Z,8.63
2018-08-20T09:37:44.539Z,9.50
2018-08-20T09:40:13.418Z,8.10
2018-08-20T09:42:42.309Z,7.83
2018-08-20T09:45:10.982Z,7.90
2018-08-20T09:47:40.388Z,12.00
2018-08-20T09:50:14.838Z,11.93
2018-08-20T09:52:43.406Z,14.93
2018-08-20T09:55:11.794Z,9.10
2018-08-20T09:57:40.576Z,18.27
2018-08-20T10:00:18.202Z,19.63
2018-08-20T10:02:46.632Z,14.13
2018-08-20T10:05:15.034Z,14.43
2018-08-20T10:07:43.538Z,14.30
2018-08-20T10:10:12.080Z,12.30
2018-08-20T10:12:40.467Z,10.80
2018-08-20T10:15:09.233Z,16.33
2018-08-20T10:17:37.633Z,15.73
2018-08-20T10:20:08.258Z,11.97
2018-08-20T10:22:36.632Z,16.07
2018-08-20T10:25:05.195Z,14.57
2018-08-20T10:27:33.574Z,10.77
2018-08-20T10:30:02.287Z,10.40
2018-08-20T10:32:31.290Z,8.40
2018-08-20T10:34:59.898Z,8.77
2018-08-20T10:37:28.278Z,7.07
2018-08-20T10:39:56.696Z,7.10
2018-08-20T10:42:25.103Z,5.90
2018-08-20T10:44:58.543Z,7.97
2018-08-20T10:47:26.982Z,6.73
2018-08-20T10:49:55.392Z,5.93
2018-08-20T10:52:23.766Z,7.17
2018-08-20T10:54:52.162Z,6.00
2018-08-20T10:57:20.539Z,8.10
2018-08-20T10:59:48.922Z,7.57
2018-08-20T11:02:17.295Z,8.57
2018-08-20T11:04:45.681Z,5.77
2018-08-20T11:07:14.054Z,4.87
2018-08-20T11:09:42.450Z,14.40
2018-08-20T11:12:10.821Z,9.73
2018-08-20T11:14:39.214Z,4.37
2018-08-20T11:17:07.605Z,7.57
2018-08-20T11:19:36.001Z,6.07
2018-08-20T11:22:04.386Z,4.50
2018-08-20T11:24:32.773Z,6.30
2018-08-20T11:27:01.219Z,4.77
2018-08-20T11:29:29.555Z,5.63
2018-08-20T11:31:57.930Z,4.57
2018-08-20T11:34:26.333Z,10.10
2018-08-20T11:36:54.706Z,3.30
2018-08-20T11:39:23.094Z,2.83
2018-08-20T11:41:51.466Z,6.20
2018-08-20T11:44:19.873Z,1.47
2018-08-20T11:46:48.250Z,1.77
2018-08-20T11:49:16.689Z,1.90
2018-08-20T11:51:45.050Z,1.10
2018-08-20T11:54:13.419Z,1.40
2018-08-20T11:56:41.809Z,4.00
2018-08-20T11:59:10.259Z,1.20
2018-08-20T12:01:38.609Z,1.00
2018-08-20T12:04:07.030Z,0.93
2018-08-20T12:06:35.450Z,2.57
2018-08-20T12:09:05.382Z,2.00
2018-08-20T12:11:33.778Z,1.00
2018-08-20T12:14:02.155Z,1.37
2018-08-20T12:16:30.551Z,1.00
2018-08-20T12:18:58.956Z,0.90
2018-08-20T12:21:27.388Z,0.97
2018-08-20T12:23:55.764Z,2.13
2018-08-20T12:26:24.149Z,0.87
2018-08-20T12:28:52.518Z,0.87
2018-08-20T12:31:20.909Z,4.83
2018-08-20T12:33:49.334Z,0.80
2018-08-20T12:36:17.718Z,4.40
2018-08-20T12:38:46.092Z,1.17
2018-08-20T12:41:14.483Z,1.33
2018-08-20T12:43:42.857Z,0.70
2018-08-20T12:46:11.250Z,1.27
2018-08-20T12:48:39.610Z,0.90
2018-08-20T12:51:08.030Z,3.17
2018-08-20T12:53:36.398Z,3.33
2018-08-20T12:56:04.790Z,3.70
2018-08-20T12:58:33.155Z,1.13
2018-08-20T13:01:01.653Z,4.83
2018-08-20T13:03:29.951Z,2.10
2018-08-20T13:05:58.387Z,0.80
2018-08-20T13:08:26.799Z,0.70
2018-08-20T13:10:55.220Z,0.80
2018-08-20T13:13:23.590Z,3.13
2018-08-20T13:15:52.019Z,1.53
2018-08-20T13:18:20.414Z,2.13
2018-08-20T13:20:48.817Z,1.37
2018-08-20T13:23:17.191Z,2.30
2018-08-20T13:25:45.727Z,2.73
2018-08-20T13:28:14.098Z,1.20
2018-08-20T13:30:42.647Z,0.93
2018-08-20T13:33:10.966Z,1.07
2018-08-20T13:35:39.360Z,2.83
2018-08-20T13:38:07.734Z,2.80
2018-08-20T13:40:36.134Z,2.20
2018-08-20T13:43:04.535Z,1.00
2018-08-20T13:45:32.930Z,1.67
2018-08-20T13:48:01.362Z,1.00
2018-08-20T13:50:29.790Z,0.83
2018-08-20T13:52:58.186Z,2.20
2018-08-20T13:55:26.559Z,2.40
2018-08-20T13:57:54.958Z,5.83
2018-08-20T14:00:23.343Z,0.70
2018-08-20T14:02:51.733Z,1.03
2018-08-20T14:05:20.114Z,1.63
2018-08-20T14:07:48.605Z,2.00
2018-08-20T14:10:16.977Z,1.13
2018-08-20T14:12:45.376Z,2.30
2018-08-20T14:15:14.426Z,2.20
2018-08-20T14:17:43.550Z,1.47
2018-08-20T14:20:13.954Z,5.43
2018-08-20T14:22:43.281Z,2.70
2018-08-20T14:25:11.816Z,2.20
2018-08-20T14:27:40.211Z,2.80
2018-08-20T14:30:13.254Z,3.17
2018-08-20T14:32:42.022Z,1.60
2018-08-20T14:35:10.994Z,2.83
2018-08-20T14:37:39.797Z,5.23
2018-08-20T14:40:12.607Z,2.10
2018-08-20T14:42:41.261Z,0.73
2018-08-20T14:45:11.162Z,1.03
2018-08-20T14:47:40.403Z,2.70
2018-08-20T14:50:10.990Z,0.80
2018-08-20T14:52:39.870Z,6.47
2018-08-20T14:55:08.773Z,4.10
2018-08-20T14:57:37.383Z,10.13
2018-08-20T15:00:06.919Z,1.60
2018-08-20T15:02:35.338Z,1.30
2018-08-20T15:05:03.821Z,1.83
2018-08-20T15:07:32.297Z,1.10
2018-08-20T15:10:00.686Z,6.53
2018-08-20T15:12:29.079Z,3.27
2018-08-20T15:14:57.560Z,10.70
2018-08-20T15:17:25.986Z,6.03
2018-08-20T15:19:54.358Z,8.00
2018-08-20T15:22:22.759Z,3.00
2018-08-20T15:24:51.143Z,3.90
2018-08-20T15:27:19.547Z,1.27
2018-08-20T15:29:47.930Z,4.07
2018-08-20T15:32:16.376Z,1.80
2018-08-20T15:34:44.738Z,3.87
2018-08-20T15:37:13.149Z,5.70
2018-08-20T15:39:41.619Z,8.93
2018-08-20T15:42:09.946Z,3.23
2018-08-20T15:44:38.313Z,3.13
2018-08-20T15:47:06.702Z,3.67
2018-08-20T15:49:35.076Z,1.37
2018-08-20T15:52:03.450Z,4.47
2018-08-20T15:54:31.842Z,2.53
2018-08-20T15:57:00.366Z,1.70
2018-08-20T15:59:28.770Z,2.90
2018-08-20T16:01:57.145Z,2.63
2018-08-20T16:04:25.535Z,2.87
2018-08-20T16:06:53.926Z,1.97
2018-08-20T16:09:22.331Z,16.73
2018-08-20T16:11:50.722Z,1.97
2018-08-20T16:14:19.113Z,6.93
2018-08-20T16:16:47.483Z,6.07
2018-08-20T16:19:15.905Z,5.73
2018-08-20T16:21:44.273Z,3.20
2018-08-20T16:24:12.667Z,7.83
2018-08-20T16:26:41.096Z,4.77
2018-08-20T16:29:09.499Z,9.93
2018-08-20T16:31:37.926Z,6.90
2018-08-20T16:34:06.354Z,10.20
2018-08-20T16:36:34.878Z,3.23
2018-08-20T16:39:04.814Z,8.70
2018-08-20T16:41:33.286Z,3.40
2018-08-20T16:44:01.682Z,7.67
2018-08-20T16:46:30.054Z,6.10
2018-08-20T16:48:58.487Z,5.73
2018-08-20T16:51:26.882Z,8.30
2018-08-20T16:53:55.290Z,12.60
2018-08-20T16:56:23.658Z,1.80
2018-08-20T16:58:52.154Z,9.00
2018-08-20T17:01:20.550Z,6.03
2018-08-20T17:03:48.982Z,4.77
2018-08-20T17:06:17.357Z,7.63
2018-08-20T17:08:45.978Z,6.40
2018-08-20T17:11:14.873Z,8.93
2018-08-20T17:13:43.453Z,7.53
2018-08-20T17:16:14.990Z,6.03
2018-08-20T17:18:43.415Z,5.13
2018-08-20T17:21:11.791Z,6.57
2018-08-20T17:23:40.177Z,10.83
2018-08-20T17:26:08.759Z,11.87
2018-08-20T17:28:37.275Z,7.07
2018-08-20T17:31:09.913Z,9.90
2018-08-20T17:33:38.302Z,2.03
2018-08-20T17:36:08.232Z,19.67
2018-08-20T17:38:36.651Z,8.13
2018-08-20T17:41:05.875Z,2.87
2018-08-20T17:43:34.266Z,5.40
2018-08-20T17:46:02.658Z,9.20
2018-08-20T17:48:32.446Z,4.97
2018-08-20T17:51:01.002Z,8.93
2018-08-20T17:53:42.834Z,9.87
2018-08-20T17:56:11.218Z,8.40
2018-08-20T17:58:39.585Z,9.70
2018-08-20T18:01:08.003Z,13.13
2018-08-20T18:03:37.232Z,8.43
2018-08-20T18:06:07.778Z,9.07
2018-08-20T18:08:36.439Z,7.67
2018-08-20T18:11:05.795Z,8.83
2018-08-20T18:13:44.469Z,10.00
2018-08-20T18:16:14.006Z,8.57
2018-08-20T18:18:45.220Z,8.40
2018-08-20T18:21:13.610Z,8.17
2018-08-20T18:23:41.998Z,8.97
2018-08-20T18:26:10.413Z,15.43
2018-08-20T18:28:45.753Z,11.40
2018-08-20T18:31:15.738Z,15.83
2018-08-20T18:33:44.606Z,24.23
2018-08-20T18:36:15.198Z,14.87
2018-08-20T18:39:04.961Z,11.77
2018-08-20T18:41:55.483Z,32.30
2018-08-20T18:44:24.102Z,7.00
2018-08-20T18:46:52.921Z,15.73
2018-08-20T18:49:22.081Z,7.03
2018-08-20T18:52:03.803Z,8.07
2018-08-20T18:54:36.084Z,11.23
2018-08-20T18:57:05.470Z,7.60
2018-08-20T18:59:35.363Z,24.83
2018-08-20T19:02:03.810Z,16.53
2018-08-20T19:04:38.650Z,12.60
2018-08-20T19:07:10.049Z,15.83
2018-08-20T19:09:39.231Z,21.90
2018-08-20T19:12:08.033Z,28.67
2018-08-20T19:14:36.407Z,11.03
2018-08-20T19:17:13.185Z,15.87
2018-08-20T19:19:45.720Z,22.27
2018-08-20T19:22:19.427Z,24.73
2018-08-20T19:24:47.794Z,22.00
2018-08-20T19:27:16.267Z,42.70
2018-08-20T19:29:44.671Z,19.13
2018-08-20T19:32:13.074Z,25.47
2018-08-20T19:34:41.446Z,22.77
2018-08-20T19:37:09.863Z,11.97
2018-08-20T19:39:38.238Z,26.80
2018-08-20T19:42:07.330Z,28.60
2018-08-20T19:44:35.702Z,11.93
2018-08-20T19:47:04.093Z,8.53
2018-08-20T19:49:32.472Z,14.23
2018-08-20T19:52:01.022Z,26.83
2018-08-20T19:54:29.393Z,20.30
2018-08-20T19:56:57.777Z,9.00
2018-08-20T19:59:31.442Z,9.40
2018-08-20T20:01:59.899Z,8.73
2018-08-20T20:04:28.269Z,6.60
2018-08-20T20:06:56.674Z,7.07
2018-08-20T20:09:25.042Z,11.40
2018-08-20T20:11:53.432Z,6.20
2018-08-20T20:14:21.808Z,16.30
2018-08-20T20:16:54.471Z,14.07
2018-08-20T20:19:23.026Z,8.27
2018-08-20T20:21:51.431Z,12.30
2018-08-20T20:24:19.817Z,7.57
2018-08-20T20:26:48.213Z,11.30
2018-08-20T20:29:16.640Z,6.57
2018-08-20T20:31:45.017Z,14.67
2018-08-20T20:34:13.389Z,15.63
2018-08-20T20:36:41.777Z,11.13
2018-08-20T20:39:11.586Z,8.63
2018-08-20T20:41:40.078Z,14.67
2018-08-20T20:44:09.310Z,8.57
2018-08-20T20:46:37.705Z,9.03
2018-08-20T20:49:06.083Z,12.27
2018-08-20T20:51:34.506Z,13.23
2018-08-20T20:54:02.872Z,6.70
2018-08-20T20:56:31.239Z,9.90
2018-08-20T20:58:59.642Z,11.57
2018-08-20T21:01:28.011Z,21.37
2018-08-20T21:03:56.498Z,10.70
2018-08-20T21:06:24.866Z,9.70
2018-08-20T21:08:53.293Z,10.73
2018-08-20T21:11:22.977Z,17.60
2018-08-20T21:13:51.361Z,4.33
2018-08-20T21:16:23.658Z,7.70
2018-08-20T21:18:53.375Z,19.73
2018-08-20T21:21:22.390Z,14.33
2018-08-20T21:23:50.941Z,11.30
2018-08-20T21:26:19.342Z,11.57
2018-08-20T21:28:49.847Z,3.73
2018-08-20T21:31:19.335Z,7.33
2018-08-20T21:33:48.039Z,20.23
2018-08-20T21:36:16.896Z,8.20
2018-08-20T21:38:45.418Z,21.17
2018-08-20T21:41:13.781Z,19.10
2018-08-20T21:43:47.190Z,10.53
2018-08-20T21:46:15.846Z,5.67
2018-08-20T21:48:44.761Z,14.37
2018-08-20T21:51:44.710Z,11.83
2018-08-20T21:54:13.102Z,12.27
2018-08-20T21:56:49.710Z,15.77
2018-08-20T21:59:18.122Z,14.43
2018-08-20T22:01:46.485Z,5.60
2018-08-20T22:04:20.824Z,10.00
2018-08-20T22:06:49.783Z,3.40
2018-08-20T22:09:18.171Z,9.43
2018-08-20T22:11:46.537Z,7.73
2018-08-20T22:14:14.926Z,6.70
2018-08-20T22:16:43.297Z,19.33
2018-08-20T22:19:11.715Z,14.00
2018-08-20T22:21:40.086Z,7.77
2018-08-20T22:24:08.474Z,7.17
2018-08-20T22:26:40.334Z,8.47
2018-08-20T22:29:08.733Z,8.20
2018-08-20T22:31:37.127Z,8.87
2018-08-20T22:34:05.529Z,7.77
2018-08-20T22:36:34.013Z,6.73
2018-08-20T22:39:04.611Z,13.73
2018-08-20T22:41:32.988Z,10.00
2018-08-20T22:44:01.382Z,9.00
2018-08-20T22:46:29.762Z,12.60
2018-08-20T22:48:59.422Z,9.53
2018-08-20T22:51:29.616Z,9.13
2018-08-20T22:54:00.478Z,8.37
2018-08-20T22:56:33.653Z,11.20
2018-08-20T22:59:03.538Z,6.37
2018-08-20T23:01:31.910Z,10.13
2018-08-20T23:04:00.315Z,9.30
2018-08-20T23:06:28.705Z,8.87
2018-08-20T23:08:57.094Z,8.40
2018-08-20T23:11:38.972Z,9.50
2018-08-20T23:14:08.922Z,7.33
2018-08-20T23:16:37.575Z,21.50
2018-08-20T23:19:06.090Z,11.80
2018-08-20T23:21:39.741Z,5.50
2018-08-20T23:24:08.186Z,10.67
2018-08-20T23:26:36.642Z,7.40
2018-08-20T23:29:05.074Z,4.53
2018-08-20T23:31:33.473Z,13.00
2018-08-20T23:34:01.879Z,14.53
2018-08-20T23:36:30.251Z,9.97
2018-08-20T23:38:58.658Z,14.13
2018-08-20T23:41:27.025Z,18.20
2018-08-20T23:43:59.310Z,5.13
2018-08-20T23:46:38.738Z,10.17
2018-08-20T23:49:07.125Z,18.27
2018-08-20T23:51:35.513Z,10.77
2018-08-20T23:54:03.922Z,5.23
2018-08-20T23:56:32.299Z,18.63
2018-08-20T23:59:00.913Z,4.73
